Time;durP1;ratioP1;P1;durP2;ratioP2;P2;SDS_P1;SDS_P2;PMS_P1;PMS_P2;Temp;Humidity;BMP_temperature;BMP_pressure;BME280_temperature;BME280_humidity;BME280_pressure;Samples;Min_cycle;Max_cycle;Signal;HPM_P1;HPM_P2
2022/01/16 00:00:40;;;;;;;7.05;4.32;;;;;;;19.25;44.78;101421.81;4984523;28;20026;-68
2022/01/16 00:05:50;;;;;;;5.63;3.63;;;;;;;19.25;44.85;101428.94;4986073;28;20104;-67
2022/01/16 00:08:16;;;;;;;6.53;3.20;;;;;;;19.25;44.79;101384.00;4983956;28;20073;-70
2022/01/16 00:10:41;;;;;;;6.55;3.05;;;;;;;19.23;44.72;101369.16;4980704;28;20101;-69
2022/01/16 00:13:06;;;;;;;5.63;3.72;;;;;;;19.24;44.63;101377.91;4978753;28;20029;-68
2022/01/16 00:15:32;;;;;;;5.38;3.13;;;;;;;19.23;44.62;101382.38;4981750;28;20041;-69
2022/01/16 00:18:09;;;;;;;6.80;3.63;;;;;;;19.24;44.71;101385.84;4986628;28;20561;-69
2022/01/16 00:20:35;;;;;;;4.70;3.38;;;;;;;19.21;44.50;101409.97;4987341;28;20030;-66
2022/01/16 00:23:05;;;;;;;6.03;3.30;;;;;;;19.20;44.65;101376.63;4990270;28;20049;-68
2022/01/16 00:25:30;;;;;;;5.03;3.65;;;;;;;19.17;44.52;101391.00;4981547;28;20069;-65
2022/01/16 00:27:56;;;;;;;5.47;3.85;;;;;;;19.17;44.81;101376.97;4985273;28;20030;-67
2022/01/16 00:30:21;;;;;;;6.60;4.32;;;;;;;19.17;44.50;101374.34;4985784;28;20038;-67
2022/01/16 00:32:47;;;;;;;4.78;3.92;;;;;;;19.16;44.50;101378.81;4984125;28;20110;-67
2022/01/16 00:35:14;;;;;;;4.18;3.67;;;;;;;19.16;44.40;101397.28;4986353;28;20030;-70
2022/01/16 00:37:40;;;;;;;5.43;3.30;;;;;;;19.16;44.40;101428.16;4985043;28;20026;-69
2022/01/16 00:40:08;;;;;;;5.40;3.92;;;;;;;19.15;44.47;101381.63;4986401;28;20113;-67
2022/01/16 00:42:33;;;;;;;5.97;3.97;;;;;;;19.14;44.37;101351.75;4988746;28;20022;-69
2022/01/16 00:44:59;;;;;;;5.90;4.00;;;;;;;19.14;44.45;101372.06;4981402;28;20037;-68
2022/01/16 00:47:24;;;;;;;4.45;3.53;;;;;;;19.13;44.36;101380.97;4981697;28;20482;-67
2022/01/16 00:49:50;;;;;;;3.90;2.92;;;;;;;19.11;44.26;101382.97;4989544;28;20113;-66
2022/01/16 00:52:15;;;;;;;4.25;3.13;;;;;;;19.11;44.24;101401.47;4982702;28;20598;-69
2022/01/16 00:54:41;;;;;;;3.90;2.95;;;;;;;19.08;44.15;101415.03;4982796;28;20378;-69
2022/01/16 00:57:06;;;;;;;3.95;2.78;;;;;;;19.06;44.09;101423.13;4981951;28;20426;-68
2022/01/16 00:59:32;;;;;;;4.82;3.35;;;;;;;19.04;44.18;101400.53;4982382;28;20027;-68
2022/01/16 01:01:59;;;;;;;3.60;2.35;;;;;;;19.01;44.21;101414.06;4981123;28;20489;-68
2022/01/16 01:04:24;;;;;;;3.90;2.53;;;;;;;19.01;44.06;101383.22;4982345;28;20034;-67
2022/01/16 01:06:51;;;;;;;5.38;3.08;;;;;;;18.98;43.96;101303.53;4986769;28;20050;-69
2022/01/16 01:09:17;;;;;;;4.50;3.15;;;;;;;18.97;44.01;101307.16;4984607;28;20105;-69
2022/01/16 01:11:45;;;;;;;2.90;2.58;;;;;;;18.97;44.00;101301.88;4983247;28;20034;-67
2022/01/16 01:14:19;;;;;;;4.10;2.97;;;;;;;18.95;44.02;101309.16;4986711;28;20030;-68
2022/01/16 01:16:56;;;;;;;4.78;3.00;;;;;;;18.94;44.10;101297.78;4987105;28;20512;-67
2022/01/16 01:19:28;;;;;;;4.90;2.83;;;;;;;18.93;44.07;101343.66;4984016;28;20125;-66
2022/01/16 01:21:54;;;;;;;3.72;2.63;;;;;;;18.93;44.07;101364.78;4985761;28;20049;-68
2022/01/16 01:24:21;;;;;;;4.03;2.53;;;;;;;18.93;44.02;101379.81;4988163;28;20534;-68
2022/01/16 01:27:04;;;;;;;3.65;2.65;;;;;;;18.93;43.79;101403.56;4979291;28;20948;-66
2022/01/16 01:29:31;;;;;;;3.65;2.28;;;;;;;18.90;43.88;101399.50;4974743;28;20084;-68
2022/01/16 01:31:57;;;;;;;5.03;3.67;;;;;;;18.89;44.04;101403.97;4985175;28;20254;-67
2022/01/16 01:34:22;;;;;;;5.22;2.80;;;;;;;18.91;43.89;101390.53;4985948;28;20118;-69
2022/01/16 01:36:48;;;;;;;4.93;3.10;;;;;;;18.92;44.06;101410.66;4988376;28;20030;-69
2022/01/16 01:39:16;;;;;;;3.65;2.80;;;;;;;18.90;43.85;101397.66;4987359;28;20046;-67
2022/01/16 01:41:42;;;;;;;3.35;2.80;;;;;;;18.92;43.91;101394.00;4986297;28;20042;-69
2022/01/16 01:52:25;;;;;;;3.58;2.40;;;;;;;18.89;43.85;101400.50;4985977;28;20056;-67
2022/01/16 01:54:51;;;;;;;3.50;2.83;;;;;;;18.88;43.61;101404.94;4984776;28;20105;-69
2022/01/16 01:57:17;;;;;;;2.83;1.90;;;;;;;18.87;43.62;101408.59;5002877;28;20411;-67
2022/01/16 01:59:42;;;;;;;4.50;2.55;;;;;;;18.86;43.67;101396.38;4989357;28;20648;-69
2022/01/16 02:02:08;;;;;;;4.63;2.47;;;;;;;18.85;43.72;101400.03;4984005;28;20022;-66
2022/01/16 02:04:34;;;;;;;4.55;2.90;;;;;;;18.85;43.68;101405.31;4986800;28;20034;-68
2022/01/16 02:06:59;;;;;;;3.03;2.38;;;;;;;18.86;43.60;101412.22;4984486;28;20504;-69
2022/01/16 02:09:26;;;;;;;3.70;2.83;;;;;;;18.86;43.55;101399.03;4984426;28;20376;-67
2022/01/16 02:11:52;;;;;;;3.05;2.28;;;;;;;18.86;43.51;101406.13;4995807;28;20504;-68
2022/01/16 02:28:36;;;;;;;3.10;1.80;;;;;;;18.81;43.47;101382.06;4976190;28;20525;-69
2022/01/16 02:36:08;;;;;;;3.05;2.35;;;;;;;18.79;43.32;101366.41;4987167;28;20378;-66
2022/01/16 02:38:33;;;;;;;6.10;2.95;;;;;;;18.79;43.46;101360.28;4983907;28;20018;-66
2022/01/16 02:41:03;;;;;;;3.50;2.63;;;;;;;18.79;43.41;101368.22;4986626;28;20036;-67
2022/01/16 02:43:31;;;;;;;2.95;2.08;;;;;;;18.78;43.44;101350.72;4985479;28;20482;-67
2022/01/16 02:46:44;;;;;;;4.45;2.55;;;;;;;18.77;43.51;101343.81;4983258;28;20580;-68
2022/01/16 02:48:48;;;;;;;3.08;2.55;;;;;;;18.75;43.50;101346.63;4979730;28;20140;-67
2022/01/16 02:51:23;;;;;;;3.55;2.47;;;;;;;18.74;43.37;101352.09;4985556;28;20033;-66
2022/01/16 02:53:50;;;;;;;2.33;2.13;;;;;;;18.75;43.33;101356.38;4986301;28;20045;-68
2022/01/16 02:56:16;;;;;;;2.92;2.28;;;;;;;18.74;43.48;101354.72;4986577;28;20389;-67
2022/01/16 02:58:43;;;;;;;3.10;1.85;;;;;;;18.73;43.47;101343.34;4985280;28;20101;-69
2022/01/16 03:01:09;;;;;;;2.42;2.10;;;;;;;18.73;43.37;101338.06;4986712;28;20030;-69
2022/01/16 03:03:35;;;;;;;3.72;2.28;;;;;;;18.72;43.37;101339.06;4984636;28;20704;-69
2022/01/16 03:06:00;;;;;;;2.67;1.30;;;;;;;18.71;43.23;101344.50;4986286;28;20030;-67
2022/01/16 03:08:26;;;;;;;2.33;1.55;;;;;;;18.67;43.18;101337.94;4985818;28;20132;-66
2022/01/16 03:13:21;;;;;;;2.95;2.22;;;;;;;18.63;43.40;101342.75;4985469;28;20026;-66
2022/01/16 03:15:47;;;;;;;2.60;1.80;;;;;;;18.63;43.43;101334.84;4984546;28;20092;-66
2022/01/16 03:23:24;;;;;;;3.80;2.70;;;;;;;18.60;43.35;101339.59;4985958;28;20045;-68
2022/01/16 03:25:51;;;;;;;2.63;1.73;;;;;;;18.59;43.20;101338.78;4986407;28;20398;-67
2022/01/16 03:28:17;;;;;;;3.17;1.60;;;;;;;18.58;43.24;101337.16;4986073;28;20022;-69
2022/01/16 03:30:43;;;;;;;2.13;1.23;;;;;;;18.58;43.23;101329.22;4984875;28;20077;-67
2022/01/16 03:33:09;;;;;;;2.40;1.98;;;;;;;18.56;43.01;101328.59;4984809;28;21115;-68
2022/01/16 03:35:34;;;;;;;3.47;2.20;;;;;;;18.55;43.09;101319.03;4984458;28;20030;-68
2022/01/16 03:38:01;;;;;;;3.60;2.50;;;;;;;18.55;43.13;101326.94;4986026;28;20500;-69
2022/01/16 03:40:27;;;;;;;3.00;2.30;;;;;;;18.53;42.99;101326.28;4986381;28;20034;-67
2022/01/16 03:42:52;;;;;;;2.47;1.63;;;;;;;18.53;43.18;101328.94;4985466;28;20034;-68
2022/01/16 03:45:18;;;;;;;3.63;1.98;;;;;;;18.54;43.12;101333.22;4985511;28;20030;-67
2022/01/16 03:47:43;;;;;;;5.15;2.15;;;;;;;18.55;43.17;101319.03;4987204;28;20434;-66
2022/01/16 03:50:10;;;;;;;2.95;2.08;;;;;;;18.54;42.95;101322.66;4984845;28;20402;-68
2022/01/16 03:52:36;;;;;;;2.75;2.22;;;;;;;18.55;42.83;101330.41;4986500;28;20030;-68
2022/01/16 03:55:03;;;;;;;3.00;2.00;;;;;;;18.53;43.03;101324.47;4985403;28;20441;-66
2022/01/16 03:57:29;;;;;;;2.22;1.92;;;;;;;18.54;43.02;101318.19;4985672;28;20026;-69
2022/01/16 03:59:55;;;;;;;2.25;1.92;;;;;;;18.53;42.78;101321.84;4984957;28;20529;-68
2022/01/16 04:02:20;;;;;;;2.25;2.05;;;;;;;18.54;42.92;101314.75;4985935;28;20042;-68
2022/01/16 04:04:46;;;;;;;4.00;1.80;;;;;;;18.51;42.89;101315.91;4986237;28;20129;-68
2022/01/16 04:07:16;;;;;;;5.97;2.22;;;;;;;18.50;42.86;101321.38;4986590;28;20088;-67
2022/01/16 04:09:42;;;;;;;5.25;2.17;;;;;;;18.50;43.08;101313.44;4986237;28;20568;-68
2022/01/16 04:12:09;;;;;;;4.22;2.13;;;;;;;18.51;43.12;101312.44;4985217;28;20030;-68
2022/01/16 04:17:17;;;;;;;4.43;1.73;;;;;;;18.45;43.23;101303.41;4981932;28;20048;-69
2022/01/16 04:19:43;;;;;;;4.45;2.15;;;;;;;18.47;43.02;101303.25;4986229;28;20125;-67
2022/01/16 04:22:09;;;;;;;3.00;1.77;;;;;;;18.47;43.07;101306.69;4993253;28;20023;-67
2022/01/16 04:24:35;;;;;;;5.70;2.53;;;;;;;18.47;43.09;101298.78;4992098;28;20118;-68
2022/01/16 04:27:02;;;;;;;6.07;1.98;;;;;;;18.48;43.15;101302.25;4990477;28;20054;-67
2022/01/16 04:29:27;;;;;;;5.28;2.50;;;;;;;18.47;43.24;101293.50;4988442;28;20031;-68
2022/01/16 04:31:53;;;;;;;2.85;2.08;;;;;;;18.49;43.19;101293.34;4987249;28;20022;-68
2022/01/16 04:34:18;;;;;;;3.58;2.50;;;;;;;18.47;43.04;101288.22;4989669;28;20141;-66
2022/01/16 04:36:44;;;;;;;3.00;2.40;;;;;;;18.48;43.07;101291.69;4988946;28;20481;-69
2022/01/16 04:39:15;;;;;;;4.18;2.22;;;;;;;18.46;42.92;101291.88;4989695;28;20034;-68
2022/01/16 04:44:26;;;;;;;2.60;1.90;;;;;;;18.46;42.88;101278.66;4988698;28;20053;-67
2022/01/16 04:46:51;;;;;;;3.22;2.00;;;;;;;18.46;43.07;101280.50;4986621;28;20077;-66
2022/01/16 04:49:17;;;;;;;3.05;1.92;;;;;;;18.46;42.95;101277.84;4990267;28;20057;-68
2022/01/16 04:51:42;;;;;;;3.08;1.80;;;;;;;18.44;42.96;101272.75;4988368;28;20033;-67
2022/01/16 04:54:08;;;;;;;3.08;2.00;;;;;;;18.44;42.97;101271.94;4989743;28;20026;-67
2022/01/16 04:56:34;;;;;;;2.35;2.03;;;;;;;18.42;42.75;101261.59;4988833;28;20038;-68
2022/01/16 04:58:59;;;;;;;2.80;2.30;;;;;;;18.43;42.83;101270.31;4989567;28;20100;-68
2022/01/16 05:01:25;;;;;;;2.25;1.83;;;;;;;18.42;42.99;101266.03;4987542;28;20096;-68
2022/01/16 05:03:51;;;;;;;2.70;2.00;;;;;;;18.41;42.83;101277.59;4988196;28;20572;-66
2022/01/16 05:06:16;;;;;;;2.50;1.58;;;;;;;18.40;42.83;101260.94;4988018;28;20545;-68
2022/01/16 05:08:42;;;;;;;2.72;2.10;;;;;;;18.39;43.00;101253.19;4989773;28;20034;-67
2022/01/16 05:11:09;;;;;;;2.72;1.98;;;;;;;18.39;42.92;101266.38;4985354;28;20069;-68
2022/01/16 05:18:45;;;;;;;2.00;1.60;;;;;;;18.36;42.91;101272.00;4988378;28;20129;-69
2022/01/16 05:21:10;;;;;;;2.58;2.10;;;;;;;18.35;42.72;101270.38;4987598;28;20034;-67
2022/01/16 05:23:36;;;;;;;2.75;2.03;;;;;;;18.34;42.77;101269.56;4988815;28;20030;-68
2022/01/16 05:26:03;;;;;;;2.53;1.92;;;;;;;18.34;42.87;101280.09;4988242;28;20048;-69
2022/01/16 05:28:29;;;;;;;1.60;1.50;;;;;;;18.33;42.73;101282.91;4988202;28;20097;-68
2022/01/16 05:30:54;;;;;;;4.03;1.98;;;;;;;18.32;42.73;101286.56;4988279;28;20034;-67
2022/01/16 05:33:20;;;;;;;1.67;1.40;;;;;;;18.30;42.82;101288.53;4985998;28;20108;-68
2022/01/16 05:35:46;;;;;;;3.47;2.00;;;;;;;18.27;42.66;101284.44;4986812;28;20034;-69
2022/01/16 05:38:11;;;;;;;2.05;1.50;;;;;;;18.26;42.63;101287.25;4988600;28;20478;-69
2022/01/16 05:40:37;;;;;;;2.78;1.75;;;;;;;18.23;42.61;101286.59;4987960;28;20386;-68
2022/01/16 05:43:03;;;;;;;1.52;1.05;;;;;;;18.23;42.60;101277.88;4987387;28;20038;-68
2022/01/16 05:45:29;;;;;;;2.67;1.60;;;;;;;18.21;42.54;101279.84;4987449;28;20035;-67
2022/01/16 05:47:55;;;;;;;2.17;1.48;;;;;;;18.20;42.50;101276.41;4987941;28;20035;-68
2022/01/16 05:50:21;;;;;;;2.20;1.60;;;;;;;18.20;42.53;101271.13;4988538;28;20065;-67
2022/01/16 05:52:47;;;;;;;3.20;1.80;;;;;;;18.19;42.56;101274.75;4986666;28;20122;-67
2022/01/16 05:55:13;;;;;;;2.67;1.30;;;;;;;18.18;42.43;101275.75;4987503;28;20026;-67
2022/01/16 05:57:39;;;;;;;2.33;1.95;;;;;;;18.16;42.46;101272.47;4987715;28;20089;-65
2022/01/16 06:00:06;;;;;;;2.42;1.80;;;;;;;18.18;42.36;101280.19;4986616;28;20389;-67
2022/01/16 06:02:31;;;;;;;3.65;1.90;;;;;;;18.18;42.46;101275.75;4987538;28;20018;-68
2022/01/16 06:04:57;;;;;;;2.70;1.95;;;;;;;18.18;42.35;101273.09;4988147;28;20264;-66
2022/01/16 06:07:22;;;;;;;2.78;1.85;;;;;;;18.19;42.39;101272.13;4985191;28;20046;-66
2022/01/16 06:09:48;;;;;;;2.80;2.30;;;;;;;18.20;42.33;101276.41;4988159;28;20097;-68
2022/01/16 06:12:13;;;;;;;2.13;1.35;;;;;;;18.20;42.35;101286.94;4985320;28;20036;-67
2022/01/16 06:14:39;;;;;;;2.55;1.98;;;;;;;18.22;42.12;101282.31;4987999;28;20065;-66
2022/01/16 06:17:04;;;;;;;2.22;1.42;;;;;;;18.25;41.94;101286.41;4983040;28;20317;-67
2022/01/16 06:19:30;;;;;;;2.17;1.42;;;;;;;18.29;41.94;101294.81;4987780;28;20034;-66
2022/01/16 06:21:56;;;;;;;1.98;1.77;;;;;;;18.33;41.83;101298.75;4986227;28;20064;-66
2022/01/16 06:24:21;;;;;;;2.03;1.20;;;;;;;18.35;41.78;101307.31;4983293;28;20509;-67
2022/01/16 06:26:49;;;;;;;1.48;1.15;;;;;;;18.38;41.66;101306.97;4984151;28;20043;-65
2022/01/16 06:29:15;;;;;;;2.22;1.77;;;;;;;18.42;41.65;101310.88;4987379;28;20041;-68
2022/01/16 06:31:41;;;;;;;2.10;1.58;;;;;;;18.45;41.62;101316.59;4986441;28;20101;-68
2022/01/16 06:34:06;;;;;;;2.42;1.55;;;;;;;18.50;41.63;101316.09;4983177;28;20030;-69
2022/01/16 06:36:34;;;;;;;3.25;1.90;;;;;;;18.53;41.55;101321.00;4985345;28;20022;-66
2022/01/16 06:39:00;;;;;;;1.50;1.00;;;;;;;18.57;41.52;101317.84;4984606;28;20026;-67
2022/01/16 06:41:26;;;;;;;2.22;1.30;;;;;;;18.64;41.46;101314.53;4985243;28;20078;-67
2022/01/16 06:43:51;;;;;;;2.05;1.40;;;;;;;18.67;41.60;101312.38;4982674;28;20049;-67
2022/01/16 06:46:17;;;;;;;2.70;1.42;;;;;;;18.70;41.46;101309.38;4983817;28;20033;-67
2022/01/16 06:48:42;;;;;;;2.60;1.33;;;;;;;18.73;41.45;101306.38;4987286;28;20038;-69
2022/01/16 06:51:08;;;;;;;1.95;1.33;;;;;;;18.78;41.34;101319.06;4985958;28;20037;-66
2022/01/16 06:53:34;;;;;;;2.25;1.55;;;;;;;18.82;41.40;101323.00;4986014;28;20030;-67
2022/01/16 06:56:02;;;;;;;2.35;1.42;;;;;;;18.86;41.42;101322.47;4986593;28;20034;-69
2022/01/16 06:58:27;;;;;;;2.00;1.50;;;;;;;18.92;41.30;101326.19;4986136;28;20034;-68
2022/01/16 07:00:53;;;;;;;1.98;1.67;;;;;;;18.96;41.19;101326.66;4986413;28;20041;-66
2022/01/16 07:03:18;;;;;;;1.67;1.20;;;;;;;19.01;41.22;101335.69;4985723;28;20023;-66
2022/01/16 07:05:44;;;;;;;2.22;1.17;;;;;;;19.05;41.13;101331.69;4984941;28;20364;-68
2022/01/16 07:08:10;;;;;;;1.42;1.15;;;;;;;19.12;41.09;101331.78;4983279;28;20046;-70
2022/01/16 07:10:36;;;;;;;2.15;1.40;;;;;;;19.18;41.00;101337.19;4987274;28;20097;-69
2022/01/16 07:13:02;;;;;;;2.90;1.52;;;;;;;19.21;40.91;101328.06;4987600;28;20030;-69
2022/01/16 07:15:27;;;;;;;2.38;1.35;;;;;;;19.25;40.95;101326.72;4986957;28;20085;-69
2022/01/16 07:17:53;;;;;;;2.10;1.13;;;;;;;19.27;40.78;101340.56;4986664;28;20038;-68
2022/01/16 07:20:18;;;;;;;1.70;1.40;;;;;;;19.28;40.78;101326.34;4987160;28;20431;-66
2022/01/16 07:22:44;;;;;;;2.22;1.73;;;;;;;19.31;40.68;101333.09;4987267;28;20114;-69
2022/01/16 07:25:11;;;;;;;1.70;1.45;;;;;;;19.33;40.84;101339.84;4985913;28;20038;-67
2022/01/16 07:27:37;;;;;;;1.90;1.30;;;;;;;19.35;40.66;101343.13;4985197;28;20069;-67
2022/01/16 07:30:04;;;;;;;1.80;1.27;;;;;;;19.36;40.83;101347.41;4984461;28;20486;-66
2022/01/16 07:32:30;;;;;;;1.60;1.08;;;;;;;19.38;40.81;101344.56;4985459;28;20032;-70
2022/01/16 07:34:55;;;;;;;2.67;1.73;;;;;;;19.39;40.89;101344.38;4986566;28;20145;-68
2022/01/16 07:37:21;;;;;;;1.42;1.10;;;;;;;19.40;40.69;101346.03;4985905;28;20034;-68
2022/01/16 07:39:46;;;;;;;4.35;1.55;;;;;;;19.41;40.88;101347.66;4985670;28;20149;-67
2022/01/16 07:42:12;;;;;;;1.63;1.00;;;;;;;19.42;40.86;101338.75;4983475;28;20050;-68
2022/01/16 07:44:38;;;;;;;1.55;0.98;;;;;;;19.44;40.91;101335.91;4984015;28;20218;-69
2022/01/16 07:47:03;;;;;;;2.03;1.48;;;;;;;19.46;40.83;101333.91;4986375;28;20512;-67
2022/01/16 07:49:29;;;;;;;1.40;1.10;;;;;;;19.47;40.78;101341.66;4986105;28;20480;-66
2022/01/16 07:51:54;;;;;;;1.80;1.10;;;;;;;19.49;40.87;101344.13;4984511;28;20030;-70
2022/01/16 07:54:20;;;;;;;1.50;1.30;;;;;;;19.50;40.64;101343.13;4981259;28;20533;-67
2022/01/16 07:56:45;;;;;;;1.75;1.20;;;;;;;19.52;40.55;101343.78;4989362;28;20560;-68
2022/01/16 07:59:11;;;;;;;1.75;1.20;;;;;;;19.54;40.68;101347.91;4992075;28;20092;-68
2022/01/16 08:01:37;;;;;;;2.05;1.33;;;;;;;19.57;40.66;101340.59;4987473;28;20498;-67
2022/01/16 08:04:02;;;;;;;1.85;1.42;;;;;;;19.58;40.66;101342.25;4988527;28;20034;-69
2022/01/16 08:06:28;;;;;;;1.67;1.17;;;;;;;19.59;40.63;101343.91;4989818;28;20471;-67
2022/01/16 08:08:53;;;;;;;1.65;1.17;;;;;;;19.60;40.66;101343.72;4987532;28;20034;-67
2022/01/16 08:11:18;;;;;;;2.60;1.10;;;;;;;19.62;40.80;101341.72;4988464;28;20470;-68
2022/01/16 08:13:44;;;;;;;2.28;1.85;;;;;;;19.63;40.86;101342.53;4988757;28;20042;-66
2022/01/16 08:16:09;;;;;;;3.88;1.40;;;;;;;19.68;40.84;101337.50;4984440;28;20443;-68
2022/01/16 08:18:35;;;;;;;2.63;1.50;;;;;;;19.72;41.33;101336.16;4989978;28;20030;-66
2022/01/16 08:21:01;;;;;;;5.78;2.38;;;;;;;19.73;41.39;101340.44;4989346;28;20038;-66
2022/01/16 08:23:27;;;;;;;3.67;1.52;;;;;;;19.76;41.84;101334.78;4991207;28;20191;-65
2022/01/16 08:25:53;;;;;;;11.18;2.15;;;;;;;19.76;41.93;101335.59;4989855;28;20030;-65
2022/01/16 08:28:18;;;;;;;1.60;1.20;;;;;;;19.79;42.17;101323.84;4987577;28;20545;-66
2022/01/16 08:30:44;;;;;;;3.97;1.63;;;;;;;19.81;42.36;101335.06;4992194;28;20469;-66
2022/01/16 08:33:09;;;;;;;6.47;1.95;;;;;;;19.83;42.43;101340.97;4988591;28;20034;-65
2022/01/16 08:35:35;;;;;;;2.55;1.40;;;;;;;19.85;42.47;101334.47;4987497;28;20478;-65
2022/01/16 08:38:00;;;;;;;2.00;1.30;;;;;;;19.85;42.48;101344.22;4988090;28;20042;-65
2022/01/16 08:40:26;;;;;;;1.75;1.50;;;;;;;19.87;42.41;101336.94;4987228;28;20128;-66
2022/01/16 08:42:52;;;;;;;2.55;1.02;;;;;;;19.89;42.42;101337.56;4989425;28;20539;-67
2022/01/16 08:45:17;;;;;;;4.85;1.60;;;;;;;19.91;42.39;101346.16;4986982;28;20026;-66
2022/01/16 08:47:43;;;;;;;4.57;1.80;;;;;;;19.96;42.40;101346.41;4988000;28;20038;-67
2022/01/16 08:50:10;;;;;;;5.07;1.35;;;;;;;20.04;42.32;101348.13;4990628;28;20085;-67
2022/01/16 08:52:36;;;;;;;2.92;1.35;;;;;;;20.13;41.91;101354.97;4986342;28;20131;-67
2022/01/16 08:55:02;;;;;;;3.38;1.27;;;;;;;20.18;41.96;101345.47;4990975;28;20039;-66
2022/01/16 08:57:28;;;;;;;2.70;1.50;;;;;;;20.22;41.88;101343.28;4989658;28;20026;-66
2022/01/16 08:59:54;;;;;;;2.45;1.27;;;;;;;20.26;41.73;101344.53;4987046;28;20031;-67
2022/01/16 09:02:19;;;;;;;4.28;1.52;;;;;;;20.30;41.63;101343.16;4986371;28;20030;-68
2022/01/16 09:04:44;;;;;;;4.22;1.05;;;;;;;20.38;41.80;101336.94;4981297;28;20492;-67
2022/01/16 09:07:10;;;;;;;3.22;1.45;;;;;;;20.45;41.41;101333.38;4977864;28;20054;-70
2022/01/16 09:09:36;;;;;;;3.13;1.40;;;;;;;20.51;41.42;101335.25;4983018;28;20037;-68
2022/01/16 09:12:01;;;;;;;1.95;1.10;;;;;;;20.54;41.38;101334.88;4981477;28;20073;-67
2022/01/16 09:14:27;;;;;;;3.78;1.45;;;;;;;20.56;41.49;101337.34;4987619;28;20057;-68
2022/01/16 09:16:53;;;;;;;12.00;1.80;;;;;;;20.58;41.36;101340.63;4987495;28;20045;-67
2022/01/16 09:19:18;;;;;;;3.28;1.10;;;;;;;20.57;41.53;101340.81;4987393;28;20114;-67
2022/01/16 09:21:43;;;;;;;5.05;1.23;;;;;;;20.54;41.55;101331.41;4991620;28;20045;-67
2022/01/16 09:24:09;;;;;;;10.00;2.15;;;;;;;20.53;41.99;101340.38;4985370;28;20022;-68
2022/01/16 09:26:35;;;;;;;8.75;1.50;;;;;;;20.52;41.92;101336.91;4986017;28;20030;-66
2022/01/16 09:29:02;;;;;;;5.50;1.27;;;;;;;20.51;42.18;101339.75;4985297;28;20126;-66
2022/01/16 09:31:27;;;;;;;8.43;2.05;;;;;;;20.53;42.79;101343.00;4986024;28;20470;-68
2022/01/16 09:33:54;;;;;;;8.70;2.47;;;;;;;20.59;43.01;101341.44;4986263;28;20045;-67
2022/01/16 09:36:20;;;;;;;7.05;2.25;;;;;;;20.66;43.87;101345.81;4991614;28;20037;-67
2022/01/16 09:38:45;;;;;;;16.13;4.32;;;;;;;20.74;46.05;101345.69;4987650;28;20038;-67
2022/01/16 09:41:11;;;;;;;17.50;3.65;;;;;;;20.80;46.85;101344.88;4989160;28;20027;-67
2022/01/16 09:43:38;;;;;;;12.25;2.78;;;;;;;20.83;47.93;101341.88;4987847;28;20022;-67
2022/01/16 09:46:04;;;;;;;10.45;3.47;;;;;;;20.89;49.84;101337.63;4988880;28;20057;-68
2022/01/16 09:48:29;;;;;;;9.00;3.50;;;;;;;20.88;51.62;101331.53;4988230;28;20458;-66
2022/01/16 09:50:54;;;;;;;11.35;2.70;;;;;;;20.88;50.21;101331.53;4990225;28;20286;-66
2022/01/16 09:53:22;;;;;;;5.32;2.63;;;;;;;20.82;48.70;101323.50;4990029;28;20090;-67
2022/01/16 09:55:47;;;;;;;5.25;2.50;;;;;;;20.77;48.24;101323.28;4987217;28;20045;-67
2022/01/16 09:58:13;;;;;;;10.48;2.33;;;;;;;20.71;46.87;101308.97;4988716;28;20050;-66
2022/01/16 10:00:39;;;;;;;5.88;2.00;;;;;;;20.68;46.41;101305.91;4982951;28;20030;-66
2022/01/16 10:03:05;;;;;;;6.53;2.42;;;;;;;20.66;45.64;101306.09;4996602;28;20042;-67
2022/01/16 10:05:38;;;;;;;5.57;2.55;;;;;;;20.67;48.62;101307.72;4989274;28;20515;-66
2022/01/16 10:08:09;;;;;;;18.48;4.07;;;;;;;20.71;48.69;101298.38;4991248;28;20058;-68
2022/01/16 10:10:40;;;;;;;8.90;3.80;;;;;;;20.71;48.51;101306.34;4985492;28;20030;-68
2022/01/16 10:13:18;;;;;;;13.80;3.63;;;;;;;20.69;49.85;101299.59;4986825;28;20044;-66
2022/01/16 10:15:52;;;;;;;6.88;2.53;;;;;;;20.70;51.73;101288.81;4982962;28;20077;-66
2022/01/16 10:18:35;;;;;;;7.93;3.47;;;;;;;20.69;52.20;101289.00;4986691;28;20042;-68
2022/01/16 10:21:01;;;;;;;5.28;3.38;;;;;;;20.63;48.98;101290.56;4986336;28;20104;-66
2022/01/16 10:23:27;;;;;;;9.20;3.80;;;;;;;20.63;50.70;101297.69;4988776;28;20486;-67
2022/01/16 10:25:52;;;;;;;7.88;3.38;;;;;;;20.60;48.47;101285.66;4985518;28;20451;-67
2022/01/16 10:28:20;;;;;;;6.35;2.78;;;;;;;20.56;46.60;101288.88;4985691;28;20035;-66
2022/01/16 10:30:49;;;;;;;5.28;2.38;;;;;;;20.51;45.53;101284.16;4985470;28;20030;-68
2022/01/16 10:33:19;;;;;;;8.77;2.08;;;;;;;20.47;45.03;101277.59;4987371;28;20054;-67
2022/01/16 10:35:47;;;;;;;6.68;2.13;;;;;;;20.43;44.19;101274.50;4989429;28;20476;-65
2022/01/16 10:38:21;;;;;;;12.32;2.30;;;;;;;20.39;43.72;101275.88;4984315;28;20084;-65
2022/01/16 10:40:51;;;;;;;3.92;2.03;;;;;;;20.36;43.58;101278.06;4986500;28;20038;-67
2022/01/16 10:43:36;;;;;;;3.72;1.90;;;;;;;20.34;43.31;101269.50;4988151;28;20462;-68
2022/01/16 10:46:02;;;;;;;3.42;1.50;;;;;;;20.29;43.20;101269.25;4987636;28;20045;-66
2022/01/16 10:48:28;;;;;;;6.88;1.73;;;;;;;20.29;42.90;101271.91;4987875;28;20061;-66
2022/01/16 10:50:54;;;;;;;2.95;1.63;;;;;;;20.27;42.98;101273.91;4988471;28;20034;-67
2022/01/16 10:53:31;;;;;;;2.17;1.65;;;;;;;20.21;42.68;101265.72;4987524;28;20049;-67
2022/01/16 10:55:58;;;;;;;5.35;1.60;;;;;;;20.21;42.52;101264.91;4986821;28;20557;-67
2022/01/16 10:58:29;;;;;;;3.55;1.67;;;;;;;20.19;42.36;101270.38;4987173;28;20050;-66
2022/01/16 11:01:00;;;;;;;2.00;1.50;;;;;;;20.17;42.32;101269.75;4988048;28;20030;-66
2022/01/16 11:03:27;;;;;;;8.07;2.53;;;;;;;20.16;42.33;101262.81;4986064;28;20619;-67
2022/01/16 11:05:54;;;;;;;4.65;2.00;;;;;;;20.13;42.45;101263.19;4987739;28;20077;-68
2022/01/16 11:08:25;;;;;;;2.97;1.95;;;;;;;20.13;42.24;101257.91;4987311;28;20088;-67
2022/01/16 11:10:56;;;;;;;4.10;1.73;;;;;;;20.13;42.16;101259.72;4988399;28;20038;-67
2022/01/16 11:13:23;;;;;;;4.97;2.17;;;;;;;20.13;42.08;101255.25;4986879;28;20026;-68
2022/01/16 11:15:54;;;;;;;4.00;1.90;;;;;;;20.12;42.18;101261.56;4987660;28;21840;-67
2022/01/16 11:18:22;;;;;;;3.78;1.77;;;;;;;20.12;42.18;101266.03;4987815;28;20061;-68
2022/01/16 11:20:57;;;;;;;5.57;1.67;;;;;;;20.11;42.19;101257.28;4988382;28;20129;-67
2022/01/16 11:25:49;;;;;;;2.35;1.67;;;;;;;20.10;42.16;101245.06;4985305;28;20041;-68
2022/01/16 11:28:18;;;;;;;3.38;1.55;;;;;;;20.10;42.20;101241.59;4987167;28;20027;-68
2022/01/16 11:30:47;;;;;;;4.45;1.90;;;;;;;20.09;42.30;101238.13;4988030;28;20025;-69
2022/01/16 11:33:14;;;;;;;2.83;1.35;;;;;;;20.08;42.37;101233.84;4990763;28;20033;-67
2022/01/16 11:35:47;;;;;;;4.38;1.60;;;;;;;20.05;42.28;101236.03;4991833;28;20033;-66
2022/01/16 11:38:13;;;;;;;3.40;1.13;;;;;;;20.04;42.47;101232.56;4992119;28;20030;-67
2022/01/16 11:40:45;;;;;;;2.63;1.33;;;;;;;20.03;42.59;101230.13;4992452;28;20420;-67
2022/01/16 11:43:14;;;;;;;2.15;1.08;;;;;;;19.99;42.46;101231.50;4992052;28;20098;-65
2022/01/16 11:46:04;;;;;;;2.30;1.40;;;;;;;19.96;42.53;101230.03;4991669;28;20084;-66
2022/01/16 11:48:36;;;;;;;1.63;1.23;;;;;;;19.95;42.42;101224.94;4992291;28;20037;-67
2022/01/16 11:51:03;;;;;;;3.15;1.10;;;;;;;19.94;42.59;101226.75;4991930;28;20053;-68
2022/01/16 11:53:57;;;;;;;4.20;1.25;;;;;;;19.88;42.65;101225.69;4991798;28;20023;-66
2022/01/16 11:56:37;;;;;;;4.60;1.20;;;;;;;19.85;42.48;101218.13;4992242;28;20034;-68
2022/01/16 11:59:15;;;;;;;2.30;1.13;;;;;;;19.85;42.52;101219.94;4991603;28;20062;-65
2022/01/16 12:01:47;;;;;;;1.55;1.10;;;;;;;19.86;42.62;101214.47;4991898;28;20038;-68
2022/01/16 12:04:28;;;;;;;1.48;1.00;;;;;;;19.81;42.58;101210.78;5001351;28;20054;-69
2022/01/16 12:07:20;;;;;;;1.83;0.80;;;;;;;19.80;42.71;101201.22;5006778;28;20057;-67
2022/01/16 12:09:50;;;;;;;1.30;1.08;;;;;;;19.80;42.84;101198.56;5024954;28;20232;-68
2022/01/16 12:12:16;;;;;;;2.03;1.10;;;;;;;19.78;42.57;101197.94;5007005;28;20044;-67
2022/01/16 12:15:00;;;;;;;1.98;1.00;;;;;;;19.75;42.57;101195.66;5006887;28;20132;-67